createdAt,value
2017-08-29T00:01:04.239Z,5.18
2017-08-29T00:03:33.056Z,5.95
2017-08-29T00:06:01.895Z,5.00
2017-08-29T00:08:30.711Z,5.97
2017-08-29T00:10:59.591Z,6.15
2017-08-29T00:13:30.079Z,5.28
2017-08-29T00:15:59.001Z,5.03
2017-08-29T00:18:27.802Z,5.90
2017-08-29T00:20:56.658Z,5.40
2017-08-29T00:23:25.460Z,5.40
2017-08-29T00:25:54.328Z,6.07
2017-08-29T00:28:23.140Z,5.50
2017-08-29T00:30:51.988Z,5.20
2017-08-29T00:33:21.324Z,6.28
2017-08-29T00:35:50.155Z,5.45
2017-08-29T00:38:18.967Z,5.65
2017-08-29T00:40:47.852Z,5.62
2017-08-29T00:43:15.964Z,5.15
2017-08-29T00:45:44.780Z,5.85
2017-08-29T00:48:13.591Z,6.10
2017-08-29T00:50:42.431Z,5.78
2017-08-29T00:53:11.000Z,6.15
2017-08-29T00:55:39.495Z,5.57
2017-08-29T00:58:08.309Z,5.78
2017-08-29T01:00:36.469Z,5.78
2017-08-29T01:03:05.838Z,5.60
2017-08-29T01:05:34.345Z,5.75
2017-08-29T01:08:03.716Z,5.53
2017-08-29T01:10:31.894Z,6.10
2017-08-29T01:13:00.009Z,6.47
2017-08-29T01:15:29.266Z,6.00
2017-08-29T01:17:57.725Z,6.78
2017-08-29T01:20:25.886Z,6.32
2017-08-29T01:22:54.344Z,5.85
2017-08-29T01:25:22.514Z,6.70
2017-08-29T01:27:51.025Z,6.55
2017-08-29T01:30:19.127Z,6.62
2017-08-29T01:32:47.630Z,5.57
2017-08-29T01:35:15.758Z,5.57
2017-08-29T01:37:44.001Z,6.15
2017-08-29T01:40:12.455Z,6.55
2017-08-29T01:42:40.631Z,7.07
2017-08-29T01:45:09.112Z,5.80
2017-08-29T01:47:37.284Z,5.62
2017-08-29T01:50:06.273Z,5.90
2017-08-29T01:52:35.137Z,5.90
2017-08-29T01:55:03.288Z,6.62
2017-08-29T01:57:32.580Z,5.70
2017-08-29T02:00:00.703Z,6.50
2017-08-29T02:02:29.218Z,6.00
2017-08-29T02:04:57.360Z,6.78
2017-08-29T02:07:26.247Z,6.40
2017-08-29T02:09:54.757Z,7.07
2017-08-29T02:12:22.920Z,6.60
2017-08-29T02:14:51.417Z,6.40
2017-08-29T02:17:20.696Z,7.47
2017-08-29T02:19:49.519Z,6.95
2017-08-29T02:22:18.389Z,6.68
2017-08-29T02:24:47.204Z,7.72
2017-08-29T02:27:16.060Z,6.97
2017-08-29T02:29:45.408Z,6.60
2017-08-29T02:32:14.081Z,6.93
2017-08-29T02:34:42.939Z,8.00
2017-08-29T02:37:11.763Z,8.00
2017-08-29T02:39:40.616Z,6.57
2017-08-29T02:42:09.440Z,7.37
2017-08-29T02:44:38.313Z,7.18
2017-08-29T02:47:07.119Z,7.30
2017-08-29T02:49:35.979Z,6.93
2017-08-29T02:52:04.782Z,7.47
2017-08-29T02:54:33.633Z,7.70
2017-08-29T02:57:02.487Z,8.00
2017-08-29T02:59:31.391Z,7.90
2017-08-29T03:02:00.224Z,7.35
2017-08-29T03:04:29.085Z,7.40
2017-08-29T03:06:57.918Z,7.30
2017-08-29T03:09:26.815Z,7.57
2017-08-29T03:11:55.618Z,7.22
2017-08-29T03:14:24.493Z,7.78
2017-08-29T03:16:54.241Z,6.87
2017-08-29T03:19:23.135Z,8.18
2017-08-29T03:21:51.780Z,7.00
2017-08-29T03:24:20.658Z,7.95
2017-08-29T03:26:49.466Z,7.72
2017-08-29T03:29:18.335Z,8.57
2017-08-29T03:31:47.146Z,7.47
2017-08-29T03:34:16.013Z,7.87
2017-08-29T03:36:44.868Z,7.53
2017-08-29T03:39:13.741Z,7.40
2017-08-29T03:41:42.611Z,7.82
2017-08-29T03:44:11.465Z,7.47
2017-08-29T03:46:40.273Z,7.80
2017-08-29T03:49:09.141Z,8.70
2017-08-29T03:51:37.957Z,8.30
2017-08-29T03:54:06.855Z,9.05
2017-08-29T03:56:35.694Z,9.25
2017-08-29T03:59:04.540Z,7.85
2017-08-29T04:01:34.315Z,9.20
2017-08-29T04:04:03.933Z,8.65
2017-08-29T04:06:32.781Z,8.55
2017-08-29T04:09:01.672Z,8.98
2017-08-29T04:11:30.493Z,8.65
2017-08-29T04:13:59.351Z,9.93
2017-08-29T04:16:28.174Z,8.88
2017-08-29T04:18:57.037Z,8.85
2017-08-29T04:21:25.841Z,8.45
2017-08-29T04:23:54.710Z,9.30
2017-08-29T04:26:23.723Z,8.90
2017-08-29T04:28:52.580Z,8.82
2017-08-29T04:31:21.419Z,10.18
2017-08-29T04:33:50.291Z,9.18
2017-08-29T04:36:19.109Z,9.43
2017-08-29T04:38:47.989Z,9.13
2017-08-29T04:41:17.436Z,9.80
2017-08-29T04:43:47.016Z,8.70
2017-08-29T04:46:15.843Z,9.55
2017-08-29T04:48:44.717Z,9.15
2017-08-29T04:51:13.519Z,8.95
2017-08-29T04:53:42.364Z,8.85
2017-08-29T04:56:11.181Z,9.48
2017-08-29T04:58:40.584Z,9.27
2017-08-29T05:01:08.702Z,9.15
2017-08-29T05:03:37.565Z,8.55
2017-08-29T05:06:06.409Z,10.85
2017-08-29T05:08:35.265Z,9.65
2017-08-29T05:11:04.072Z,9.30
2017-08-29T05:13:32.917Z,7.68
2017-08-29T05:16:01.734Z,9.00
2017-08-29T05:18:30.580Z,8.77
2017-08-29T05:20:59.404Z,8.45
2017-08-29T05:23:28.264Z,7.75
2017-08-29T05:25:57.067Z,8.75
2017-08-29T05:28:25.931Z,9.55
2017-08-29T05:30:54.761Z,8.93
2017-08-29T05:33:23.617Z,8.30
2017-08-29T05:35:52.439Z,8.82
2017-08-29T05:38:21.297Z,8.15
2017-08-29T05:40:50.138Z,8.07
2017-08-29T05:43:19.021Z,9.60
2017-08-29T05:45:48.692Z,8.30
2017-08-29T05:48:17.562Z,8.70
2017-08-29T05:50:46.406Z,10.13
2017-08-29T05:53:15.264Z,8.55
2017-08-29T05:55:44.842Z,7.78
2017-08-29T05:58:13.713Z,8.48
2017-08-29T06:00:42.753Z,6.87
2017-08-29T06:03:11.601Z,6.87
2017-08-29T06:05:40.462Z,7.15
2017-08-29T06:08:09.312Z,6.35
2017-08-29T06:10:38.179Z,7.28
2017-08-29T06:13:07.034Z,6.10
2017-08-29T06:15:35.844Z,5.87
2017-08-29T06:18:04.706Z,6.57
2017-08-29T06:20:33.168Z,6.40
2017-08-29T06:23:01.967Z,5.35
2017-08-29T06:25:30.823Z,5.32
2017-08-29T06:27:59.908Z,5.37
2017-08-29T06:30:28.757Z,5.60
2017-08-29T06:32:57.559Z,4.70
2017-08-29T06:35:26.413Z,4.87
2017-08-29T06:37:55.235Z,5.55
2017-08-29T06:40:24.076Z,5.15
2017-08-29T06:42:52.884Z,7.53
2017-08-29T06:45:22.581Z,4.90
2017-08-29T06:47:51.401Z,4.45
2017-08-29T06:50:20.261Z,5.20
2017-08-29T06:52:49.057Z,5.05
2017-08-29T06:55:18.056Z,4.55
2017-08-29T06:57:46.865Z,4.03
2017-08-29T07:00:15.045Z,4.05
2017-08-29T07:02:43.862Z,3.22
2017-08-29T07:05:12.717Z,3.85
2017-08-29T07:07:41.527Z,3.47
2017-08-29T07:10:10.392Z,3.20
2017-08-29T07:12:39.030Z,3.53
2017-08-29T07:15:07.696Z,3.65
2017-08-29T07:17:36.672Z,3.40
2017-08-29T07:20:07.562Z,3.95
2017-08-29T07:22:36.370Z,3.62
2017-08-29T07:25:04.995Z,3.40
2017-08-29T07:27:33.847Z,3.90
2017-08-29T07:30:02.652Z,3.10
2017-08-29T07:32:31.491Z,3.42
2017-08-29T07:35:00.300Z,3.12
2017-08-29T07:37:29.151Z,4.20
2017-08-29T07:39:57.980Z,4.03
2017-08-29T07:42:26.838Z,3.65
2017-08-29T07:44:55.657Z,3.20
2017-08-29T07:47:24.536Z,2.83
2017-08-29T07:49:52.875Z,3.62
2017-08-29T07:52:21.703Z,3.55
2017-08-29T07:54:50.330Z,3.30
2017-08-29T07:57:19.185Z,3.20
2017-08-29T07:59:47.992Z,3.15
2017-08-29T08:02:17.607Z,3.53
2017-08-29T08:04:46.416Z,3.45
2017-08-29T08:07:15.285Z,2.80
2017-08-29T08:09:44.105Z,3.17
2017-08-29T08:12:12.776Z,2.80
2017-08-29T08:14:41.417Z,3.37
2017-08-29T08:17:11.266Z,2.90
2017-08-29T08:19:40.094Z,2.75
2017-08-29T08:22:08.907Z,3.10
2017-08-29T08:24:37.719Z,2.92
2017-08-29T08:27:08.025Z,3.70
2017-08-29T08:29:36.849Z,3.50
2017-08-29T08:32:05.666Z,2.83
2017-08-29T08:34:34.326Z,3.00
2017-08-29T08:37:03.135Z,3.35
2017-08-29T08:39:32.003Z,2.90
2017-08-29T08:42:00.808Z,2.37
2017-08-29T08:44:29.681Z,2.92
2017-08-29T08:46:58.486Z,3.05
2017-08-29T08:49:27.342Z,3.22
2017-08-29T08:51:56.943Z,3.20
2017-08-29T08:54:25.813Z,3.08
2017-08-29T08:56:54.620Z,3.33
2017-08-29T08:59:23.844Z,2.90
2017-08-29T09:01:52.659Z,3.10
2017-08-29T09:04:21.500Z,2.70
2017-08-29T09:06:50.340Z,3.22
2017-08-29T09:09:19.223Z,3.20
2017-08-29T09:11:47.777Z,2.30
2017-08-29T09:14:16.878Z,2.90
2017-08-29T09:16:45.735Z,2.67
2017-08-29T09:19:14.324Z,4.20
2017-08-29T09:21:43.141Z,4.85
2017-08-29T09:24:11.741Z,3.50
2017-08-29T09:26:40.295Z,2.60
2017-08-29T09:29:08.890Z,2.00
2017-08-29T09:31:37.456Z,2.67
2017-08-29T09:34:06.049Z,2.80
2017-08-29T09:36:34.592Z,2.27
2017-08-29T09:39:03.190Z,3.43
2017-08-29T09:41:31.737Z,2.33
2017-08-29T09:44:00.317Z,2.87
2017-08-29T09:46:28.721Z,3.07
2017-08-29T09:48:57.261Z,2.30
2017-08-29T09:51:25.854Z,2.87
2017-08-29T09:53:54.423Z,2.23
2017-08-29T09:56:22.836Z,2.70
2017-08-29T09:58:51.194Z,3.30
2017-08-29T10:01:19.755Z,2.93
2017-08-29T10:03:48.287Z,2.07
2017-08-29T10:06:17.697Z,2.93
2017-08-29T10:08:46.248Z,2.10
2017-08-29T10:11:14.827Z,2.50
2017-08-29T10:13:44.503Z,3.13
2017-08-29T10:16:13.836Z,2.60
2017-08-29T10:18:42.392Z,2.60
2017-08-29T10:21:10.981Z,2.30
2017-08-29T10:23:39.568Z,2.80
2017-08-29T10:26:08.161Z,2.60
2017-08-29T10:28:36.700Z,2.00
2017-08-29T10:31:05.285Z,2.37
2017-08-29T10:33:33.838Z,2.67
2017-08-29T10:36:02.236Z,2.63
2017-08-29T10:38:30.785Z,2.63
2017-08-29T10:40:59.324Z,2.80
2017-08-29T10:43:27.610Z,2.87
2017-08-29T10:45:56.163Z,2.47
2017-08-29T10:48:24.756Z,2.90
2017-08-29T10:50:53.115Z,2.50
2017-08-29T10:53:21.699Z,3.30
2017-08-29T10:55:50.241Z,3.10
2017-08-29T10:58:18.838Z,2.20
2017-08-29T11:00:47.467Z,2.73
2017-08-29T11:03:16.773Z,2.60
2017-08-29T11:05:45.332Z,2.60
2017-08-29T11:08:13.930Z,2.60
2017-08-29T11:10:42.450Z,2.60
2017-08-29T11:13:11.061Z,2.70
2017-08-29T11:15:39.615Z,2.20
2017-08-29T11:18:08.532Z,2.37
2017-08-29T11:20:36.901Z,2.93
2017-08-29T11:23:05.290Z,3.30
2017-08-29T11:25:33.648Z,2.40
2017-08-29T11:28:02.048Z,3.00
2017-08-29T11:30:30.421Z,3.10
2017-08-29T11:32:58.811Z,7.23
2017-08-29T11:35:27.188Z,2.60
2017-08-29T11:37:55.589Z,2.67
2017-08-29T11:40:23.957Z,2.73
2017-08-29T11:42:52.328Z,2.80
2017-08-29T11:45:20.742Z,3.40
2017-08-29T11:47:49.109Z,3.40
2017-08-29T11:50:18.244Z,3.20
2017-08-29T11:52:46.591Z,3.00
2017-08-29T11:55:15.008Z,2.93
2017-08-29T11:57:43.351Z,3.13
2017-08-29T12:00:11.753Z,2.77
2017-08-29T12:02:40.111Z,3.30
2017-08-29T12:05:08.711Z,3.70
2017-08-29T12:07:37.085Z,3.30
2017-08-29T12:10:06.213Z,3.10
2017-08-29T12:12:34.625Z,3.07
2017-08-29T12:15:03.415Z,4.17
2017-08-29T12:17:32.284Z,3.53
2017-08-29T12:20:00.885Z,3.27
2017-08-29T12:22:29.419Z,3.40
2017-08-29T12:24:57.996Z,3.50
2017-08-29T12:27:26.541Z,3.60
2017-08-29T12:29:55.125Z,3.17
2017-08-29T12:32:23.716Z,4.10
2017-08-29T12:34:53.089Z,3.97
2017-08-29T12:37:21.649Z,3.70
2017-08-29T12:39:51.024Z,3.97
2017-08-29T12:42:19.581Z,4.17
2017-08-29T12:44:47.959Z,3.70
2017-08-29T12:47:16.394Z,3.20
2017-08-29T12:49:44.946Z,3.93
2017-08-29T12:52:13.546Z,3.63
2017-08-29T12:54:43.079Z,3.93
2017-08-29T12:57:11.681Z,3.50
2017-08-29T12:59:40.229Z,3.67
2017-08-29T13:02:08.821Z,3.20
2017-08-29T13:04:37.177Z,2.90
2017-08-29T13:07:05.778Z,3.40
2017-08-29T13:09:34.320Z,3.33
2017-08-29T13:12:03.533Z,4.67
2017-08-29T13:14:31.906Z,4.00
2017-08-29T13:17:00.501Z,4.20
2017-08-29T13:19:29.060Z,5.00
2017-08-29T13:21:57.667Z,5.20
2017-08-29T13:24:26.038Z,4.30
2017-08-29T13:26:55.203Z,5.17
2017-08-29T13:29:23.765Z,6.30
2017-08-29T13:31:52.361Z,5.50
2017-08-29T13:34:20.929Z,6.20
2017-08-29T13:36:49.504Z,5.80
2017-08-29T13:39:18.115Z,5.80
2017-08-29T13:41:46.712Z,7.17
2017-08-29T13:44:15.108Z,6.40
2017-08-29T13:46:43.648Z,6.53
2017-08-29T13:49:12.250Z,6.50
2017-08-29T13:51:40.817Z,7.20
2017-08-29T13:54:09.410Z,6.30
2017-08-29T13:56:37.957Z,6.47
2017-08-29T13:59:06.514Z,6.10
2017-08-29T14:01:35.061Z,6.63
2017-08-29T14:04:03.510Z,5.93
2017-08-29T14:06:32.064Z,5.97
2017-08-29T14:09:00.635Z,6.53
2017-08-29T14:11:29.223Z,5.87
2017-08-29T14:13:57.823Z,5.90
2017-08-29T14:16:26.384Z,5.43
2017-08-29T14:18:54.986Z,5.00
2017-08-29T14:21:23.532Z,4.40
2017-08-29T14:23:52.138Z,3.90
2017-08-29T14:26:20.700Z,4.97
2017-08-29T14:28:52.481Z,3.70
2017-08-29T14:31:21.033Z,4.00
2017-08-29T14:33:49.605Z,3.53
2017-08-29T14:36:18.144Z,4.33
2017-08-29T14:38:46.760Z,4.43
2017-08-29T14:41:15.303Z,3.80
2017-08-29T14:43:43.903Z,4.17
2017-08-29T14:46:11.754Z,3.93
2017-08-29T14:48:51.449Z,3.70
2017-08-29T14:51:19.980Z,4.00
2017-08-29T14:53:48.535Z,3.80
2017-08-29T14:56:17.151Z,4.47
2017-08-29T14:58:45.709Z,4.00
2017-08-29T15:01:13.950Z,4.73
2017-08-29T15:03:42.508Z,4.27
2017-08-29T15:06:11.100Z,4.00
2017-08-29T15:08:39.641Z,4.30
2017-08-29T15:11:08.232Z,3.30
2017-08-29T15:13:36.777Z,4.03
2017-08-29T15:16:05.359Z,4.07
2017-08-29T15:18:33.897Z,3.80
2017-08-29T15:21:02.511Z,3.90
2017-08-29T15:23:31.085Z,4.10
2017-08-29T15:25:59.523Z,4.83
2017-08-29T15:28:28.078Z,4.10
2017-08-29T15:30:56.671Z,4.57
2017-08-29T15:33:25.219Z,4.70
2017-08-29T15:35:53.810Z,5.70
2017-08-29T15:38:22.366Z,7.17
2017-08-29T15:40:50.949Z,3.90
2017-08-29T15:43:19.332Z,3.67
2017-08-29T15:45:48.227Z,4.40
2017-08-29T15:48:16.815Z,4.30
2017-08-29T15:50:45.359Z,3.97
2017-08-29T15:53:13.959Z,4.77
2017-08-29T15:55:42.499Z,4.13
2017-08-29T15:58:11.413Z,4.17
2017-08-29T16:00:39.703Z,4.20
2017-08-29T16:03:08.279Z,4.20
2017-08-29T16:05:37.608Z,5.53
2017-08-29T16:08:07.114Z,4.77
2017-08-29T16:10:35.718Z,5.03
2017-08-29T16:13:06.106Z,4.40
2017-08-29T16:15:34.653Z,4.90
2017-08-29T16:18:03.252Z,5.10
2017-08-29T16:20:31.828Z,4.63
2017-08-29T16:23:00.415Z,4.43
2017-08-29T16:25:28.977Z,4.73
2017-08-29T16:27:57.573Z,5.00
2017-08-29T16:30:26.120Z,5.20
2017-08-29T16:32:54.743Z,5.20
2017-08-29T16:35:23.312Z,5.87
2017-08-29T16:37:51.897Z,4.93
2017-08-29T16:40:20.431Z,4.80
2017-08-29T16:42:49.012Z,5.00
2017-08-29T16:45:17.558Z,5.53
2017-08-29T16:47:46.173Z,5.13
2017-08-29T16:50:14.541Z,4.77
2017-08-29T16:52:43.093Z,8.60
2017-08-29T16:55:11.661Z,6.57
2017-08-29T16:57:40.221Z,5.53
2017-08-29T17:00:08.844Z,4.90
2017-08-29T17:02:37.380Z,4.60
2017-08-29T17:05:06.204Z,5.80
2017-08-29T17:07:34.765Z,5.70
2017-08-29T17:10:03.335Z,5.63
2017-08-29T17:12:31.862Z,15.90
2017-08-29T17:15:00.446Z,14.87
2017-08-29T17:17:29.028Z,7.57
2017-08-29T17:19:57.625Z,6.57
2017-08-29T17:22:26.184Z,5.27
2017-08-29T17:24:54.777Z,4.47
2017-08-29T17:27:23.353Z,5.03
2017-08-29T17:29:51.956Z,4.70
2017-08-29T17:32:20.513Z,4.80
2017-08-29T17:34:49.119Z,4.27
2017-08-29T17:37:17.672Z,4.90
2017-08-29T17:39:46.273Z,4.87
2017-08-29T17:42:14.832Z,4.90
2017-08-29T17:44:44.195Z,5.80
2017-08-29T17:47:13.536Z,4.50
2017-08-29T17:49:42.140Z,5.47
2017-08-29T17:52:10.707Z,5.70
2017-08-29T17:54:39.291Z,5.23
2017-08-29T17:57:07.842Z,4.50
2017-08-29T17:59:36.435Z,5.60
2017-08-29T18:02:04.991Z,4.60
2017-08-29T18:04:33.187Z,4.90
2017-08-29T18:07:01.476Z,6.10
2017-08-29T18:09:30.040Z,8.20
2017-08-29T18:11:58.661Z,4.33
2017-08-29T18:14:27.245Z,4.53
2017-08-29T18:16:55.843Z,4.77
2017-08-29T18:19:24.494Z,4.27
2017-08-29T18:21:54.022Z,5.23
2017-08-29T18:24:22.721Z,4.67
2017-08-29T18:26:51.315Z,4.30
2017-08-29T18:29:21.448Z,4.20
2017-08-29T18:31:49.749Z,4.43
2017-08-29T18:37:01.646Z,4.27
2017-08-29T18:39:30.199Z,4.03
2017-08-29T18:42:00.325Z,4.47
2017-08-29T18:44:28.915Z,4.90
2017-08-29T18:46:58.379Z,4.30
2017-08-29T18:49:26.957Z,4.03
2017-08-29T18:51:58.841Z,4.60
2017-08-29T18:54:28.262Z,4.40
2017-08-29T18:56:56.818Z,5.00
2017-08-29T18:59:26.133Z,4.60
2017-08-29T19:01:55.675Z,4.20
2017-08-29T19:06:56.476Z,4.10
2017-08-29T19:09:24.735Z,4.10
2017-08-29T19:11:54.572Z,3.90
2017-08-29T19:14:23.253Z,4.20
2017-08-29T19:16:52.489Z,4.65
2017-08-29T19:19:22.492Z,3.87
2017-08-29T19:21:53.174Z,3.30
2017-08-29T19:24:22.565Z,4.20
2017-08-29T19:26:51.382Z,3.80
2017-08-29T19:29:20.270Z,4.05
2017-08-29T19:31:49.577Z,4.03
2017-08-29T19:34:18.159Z,4.83
2017-08-29T19:36:46.722Z,4.23
2017-08-29T19:39:14.881Z,3.97
2017-08-29T19:41:43.727Z,5.10
2017-08-29T19:44:12.601Z,4.20
2017-08-29T19:46:41.416Z,4.00
2017-08-29T19:49:10.268Z,3.72
2017-08-29T19:51:39.089Z,4.82
2017-08-29T19:54:07.947Z,4.07
2017-08-29T19:56:36.769Z,4.05
2017-08-29T19:59:06.050Z,3.75
2017-08-29T20:01:34.591Z,4.20
2017-08-29T20:04:03.442Z,4.40
2017-08-29T20:06:33.328Z,4.10
2017-08-29T20:09:01.899Z,4.45
2017-08-29T20:11:31.264Z,4.25
2017-08-29T20:14:00.089Z,4.35
2017-08-29T20:16:28.966Z,4.40
2017-08-29T20:18:57.776Z,4.00
2017-08-29T20:21:26.650Z,4.30
2017-08-29T20:23:55.564Z,3.25
2017-08-29T20:26:24.430Z,4.12
2017-08-29T20:28:53.245Z,3.80
2017-08-29T20:31:22.659Z,4.03
2017-08-29T20:33:51.743Z,4.30
2017-08-29T20:36:20.854Z,4.18
2017-08-29T20:38:49.506Z,4.45
2017-08-29T20:41:18.344Z,3.55
2017-08-29T20:43:49.040Z,5.45
2017-08-29T20:46:17.880Z,3.50
2017-08-29T20:48:46.733Z,3.65
2017-08-29T20:51:16.024Z,4.00
2017-08-29T20:53:44.828Z,4.40
2017-08-29T20:56:13.677Z,4.15
2017-08-29T20:58:42.484Z,4.53
2017-08-29T21:01:11.343Z,4.43
2017-08-29T21:03:39.965Z,4.03
2017-08-29T21:06:08.789Z,4.00
2017-08-29T21:08:37.651Z,4.25
2017-08-29T21:11:06.464Z,3.83
2017-08-29T21:13:35.304Z,6.90
2017-08-29T21:16:04.116Z,6.55
2017-08-29T21:18:32.977Z,3.62
2017-08-29T21:21:01.788Z,3.60
2017-08-29T21:23:31.407Z,3.90
2017-08-29T21:26:00.290Z,4.28
2017-08-29T21:28:29.157Z,3.85
2017-08-29T21:30:58.712Z,4.05
2017-08-29T21:33:29.563Z,4.22
2017-08-29T21:35:58.430Z,4.28
2017-08-29T21:38:28.469Z,4.10
2017-08-29T21:40:59.798Z,3.85
2017-08-29T21:43:28.616Z,4.35
2017-08-29T21:45:57.475Z,4.45
2017-08-29T21:48:26.351Z,4.07
2017-08-29T21:51:08.223Z,4.00
2017-08-29T21:53:37.099Z,3.62
2017-08-29T21:56:06.868Z,3.92
2017-08-29T21:58:37.434Z,3.75
2017-08-29T22:01:06.316Z,3.72
2017-08-29T22:03:35.136Z,3.65
2017-08-29T22:06:03.982Z,4.62
2017-08-29T22:08:32.807Z,3.95
2017-08-29T22:11:01.629Z,4.15
2017-08-29T22:13:30.471Z,3.97
2017-08-29T22:15:59.268Z,4.28
2017-08-29T22:18:28.137Z,4.15
2017-08-29T22:20:56.945Z,3.75
2017-08-29T22:23:25.810Z,3.80
2017-08-29T22:25:54.622Z,6.15
2017-08-29T22:28:23.497Z,3.40
2017-08-29T22:30:52.309Z,3.83
2017-08-29T22:33:21.183Z,4.05
2017-08-29T22:35:50.001Z,3.65
2017-08-29T22:38:18.826Z,3.60
2017-08-29T22:40:47.391Z,3.70
2017-08-29T22:43:16.207Z,3.62
2017-08-29T22:45:45.977Z,4.07
2017-08-29T22:48:14.788Z,4.20
2017-08-29T22:50:43.624Z,3.45
2017-08-29T22:53:12.437Z,4.00
2017-08-29T22:55:41.867Z,3.40
2017-08-29T22:58:10.690Z,3.28
2017-08-29T23:00:39.554Z,3.47
2017-08-29T23:03:08.381Z,4.03
2017-08-29T23:05:36.900Z,3.50
2017-08-29T23:08:05.437Z,4.53
2017-08-29T23:10:34.235Z,3.85
2017-08-29T23:13:03.626Z,3.70
2017-08-29T23:15:32.991Z,4.05
2017-08-29T23:18:01.827Z,4.40
2017-08-29T23:20:30.652Z,4.03
2017-08-29T23:22:59.536Z,3.87
2017-08-29T23:25:28.331Z,3.47
2017-08-29T23:27:57.157Z,3.75
2017-08-29T23:30:25.996Z,3.53
2017-08-29T23:32:54.804Z,3.65
2017-08-29T23:35:23.644Z,3.55
2017-08-29T23:37:52.481Z,3.83
2017-08-29T23:40:21.323Z,4.30
2017-08-29T23:42:50.184Z,3.47
2017-08-29T23:45:19.027Z,4.05
2017-08-29T23:47:47.843Z,3.60
2017-08-29T23:50:17.579Z,3.78
2017-08-29T23:52:46.439Z,3.70
2017-08-29T23:55:15.261Z,3.28
2017-08-29T23:57:44.137Z,3.35
